Terminal Aerodrome Forecast
Issued by NWS

Home | Current Version | Previous Version | Text Only | Print | Product List | Glossary On
Versions: 1 2 3 4 5 6 7 8 9 10 11 12 13 14
000
FTUS46 KMTR 042300
TAFSNS
TAF
KSNS 042330Z 0500/0524 27010G17KT P6SM OVC019
     FM050300 29006KT P6SM OVC018
     FM050900 25006KT P6SM OVC015
     FM052000 28015G20KT P6SM SCT020=

USA.gov is the U.S. government's official web portal to all federal, state and local government web resources and services.